sensor_id;sensor_type;location;lat;lon;timestamp;pressure;altitude;pressure_sealevel;temperature;humidity
18985;BME280;9626;52.552;13.436;2023-02-01T00:00:11;100477.00;;;3.04;100.00
18985;BME280;9626;52.552;13.436;2023-02-01T00:02:38;100474.41;;;3.04;100.00
18985;BME280;9626;52.552;13.436;2023-02-01T00:05:08;100477.06;;;3.06;100.00
18985;BME280;9626;52.552;13.436;2023-02-01T00:07:35;100475.22;;;2.98;100.00
18985;BME280;9626;52.552;13.436;2023-02-01T00:10:03;100471.66;;;2.87;100.00
18985;BME280;9626;52.552;13.436;2023-02-01T00:12:30;100470.75;;;2.82;100.00
18985;BME280;9626;52.552;13.436;2023-02-01T00:14:56;100468.97;;;2.81;100.00
18985;BME280;9626;52.552;13.436;2023-02-01T00:17:23;100472.41;;;2.75;100.00
18985;BME280;9626;52.552;13.436;2023-02-01T00:19:49;100465.41;;;2.71;100.00
18985;BME280;9626;52.552;13.436;2023-02-01T00:22:15;100475.91;;;2.74;100.00
18985;BME280;9626;52.552;13.436;2023-02-01T00:24:41;100482.94;;;2.78;100.00
18985;BME280;9626;52.552;13.436;2023-02-01T00:27:07;100469.03;;;2.84;100.00
18985;BME280;9626;52.552;13.436;2023-02-01T00:29:33;100466.44;;;2.90;100.00
18985;BME280;9626;52.552;13.436;2023-02-01T00:31:59;100469.97;;;2.92;100.00
18985;BME280;9626;52.552;13.436;2023-02-01T00:34:25;100468.19;;;2.88;100.00
18985;BME280;9626;52.552;13.436;2023-02-01T00:36:51;100478.66;;;2.91;100.00
18985;BME280;9626;52.552;13.436;2023-02-01T00:39:18;100467.38;;;2.98;100.00
18985;BME280;9626;52.552;13.436;2023-02-01T00:41:44;100477.84;;;2.98;100.00
18985;BME280;9626;52.552;13.436;2023-02-01T00:44:10;100486.53;;;2.96;100.00
18985;BME280;9626;52.552;13.436;2023-02-01T00:46:36;100475.22;;;2.95;100.00
18985;BME280;9626;52.552;13.436;2023-02-01T00:49:03;100479.59;;;2.95;100.00
18985;BME280;9626;52.552;13.436;2023-02-01T00:51:30;100469.97;;;2.94;100.00
18985;BME280;9626;52.552;13.436;2023-02-01T00:53:56;100472.59;;;2.94;100.00
18985;BME280;9626;52.552;13.436;2023-02-01T00:56:23;100480.50;;;3.01;100.00
18985;BME280;9626;52.552;13.436;2023-02-01T00:58:49;100492.69;;;3.02;100.00
18985;BME280;9626;52.552;13.436;2023-02-01T01:01:16;100490.97;;;3.01;100.00
18985;BME280;9626;52.552;13.436;2023-02-01T01:03:45;100490.06;;;2.99;100.00
18985;BME280;9626;52.552;13.436;2023-02-01T01:06:15;100490.94;;;3.00;100.00
18985;BME280;9626;52.552;13.436;2023-02-01T01:08:42;100491.78;;;2.96;100.00
18985;BME280;9626;52.552;13.436;2023-02-01T01:11:11;100483.91;;;2.91;100.00
18985;BME280;9626;52.552;13.436;2023-02-01T01:13:38;100490.88;;;2.89;100.00
18985;BME280;9626;52.552;13.436;2023-02-01T01:16:05;100488.22;;;2.87;100.00
18985;BME280;9626;52.552;13.436;2023-02-01T01:18:33;100481.28;;;2.90;100.00
18985;BME280;9626;52.552;13.436;2023-02-01T01:20:59;100480.38;;;2.86;100.00
18985;BME280;9626;52.552;13.436;2023-02-01T01:23:26;100478.59;;;2.85;100.00
18985;BME280;9626;52.552;13.436;2023-02-01T01:25:53;100477.72;;;2.83;100.00
18985;BME280;9626;52.552;13.436;2023-02-01T01:28:19;100471.66;;;2.87;100.00
18985;BME280;9626;52.552;13.436;2023-02-01T01:30:45;100467.28;;;2.83;100.00
18985;BME280;9626;52.552;13.436;2023-02-01T01:33:11;100462.03;;;2.80;100.00
18985;BME280;9626;52.552;13.436;2023-02-01T01:35:37;100459.41;;;2.78;100.00
18985;BME280;9626;52.552;13.436;2023-02-01T01:38:04;100444.56;;;2.77;100.00
18985;BME280;9626;52.552;13.436;2023-02-01T01:40:30;100442.78;;;2.75;100.00
18985;BME280;9626;52.552;13.436;2023-02-01T01:42:57;100447.16;;;2.76;100.00
18985;BME280;9626;52.552;13.436;2023-02-01T01:48:16;100446.34;;;2.80;100.00
18985;BME280;9626;52.552;13.436;2023-02-01T01:50:47;100451.56;;;2.83;100.00
18985;BME280;9626;52.552;13.436;2023-02-01T01:53:18;100443.78;;;2.89;100.00
18985;BME280;9626;52.552;13.436;2023-02-01T01:55:47;100440.28;;;2.90;100.00
18985;BME280;9626;52.552;13.436;2023-02-01T01:58:18;100439.44;;;2.90;100.00
18985;BME280;9626;52.552;13.436;2023-02-01T02:00:46;100436.81;;;2.90;100.00
18985;BME280;9626;52.552;13.436;2023-02-01T02:03:40;100441.19;;;2.92;100.00
18985;BME280;9626;52.552;13.436;2023-02-01T02:06:25;100436.81;;;2.93;100.00
18985;BME280;9626;52.552;13.436;2023-02-01T02:08:53;100440.34;;;2.98;100.00
18985;BME280;9626;52.552;13.436;2023-02-01T02:11:19;100450.84;;;3.02;100.00
18985;BME280;9626;52.552;13.436;2023-02-01T02:13:48;100447.34;;;3.00;100.00
18985;BME280;9626;52.552;13.436;2023-02-01T02:16:40;100449.13;;;3.04;100.00
18985;BME280;9626;52.552;13.436;2023-02-01T02:37:04;100416.00;;;3.07;100.00
18985;BME280;9626;52.552;13.436;2023-02-01T02:39:38;100420.34;;;3.04;100.00
18985;BME280;9626;52.552;13.436;2023-02-01T02:42:12;100415.13;;;3.09;100.00
18985;BME280;9626;52.552;13.436;2023-02-01T02:45:06;100423.00;;;3.11;100.00
18985;BME280;9626;52.552;13.436;2023-02-01T02:51:32;100421.28;;;3.10;100.00
18985;BME280;9626;52.552;13.436;2023-02-01T02:54:22;100418.59;;;3.05;100.00
18985;BME280;9626;52.552;13.436;2023-02-01T02:57:11;100421.22;;;3.07;100.00
18985;BME280;9626;52.552;13.436;2023-02-01T02:59:59;100424.75;;;3.12;100.00
18985;BME280;9626;52.552;13.436;2023-02-01T03:02:46;100423.88;;;3.11;100.00
18985;BME280;9626;52.552;13.436;2023-02-01T03:05:35;100422.13;;;3.10;100.00
18985;BME280;9626;52.552;13.436;2023-02-01T03:08:15;100416.03;;;3.13;100.00
18985;BME280;9626;52.552;13.436;2023-02-01T03:19:22;100398.59;;;3.12;100.00
18985;BME280;9626;52.552;13.436;2023-02-01T03:21:57;100395.97;;;3.10;100.00
18985;BME280;9626;52.552;13.436;2023-02-01T03:27:18;100388.13;;;3.12;100.00
18985;BME280;9626;52.552;13.436;2023-02-01T03:32:18;100374.19;;;3.19;100.00
18985;BME280;9626;52.552;13.436;2023-02-01T03:34:45;100369.84;;;3.18;100.00
18985;BME280;9626;52.552;13.436;2023-02-01T03:37:13;100372.47;;;3.21;100.00
18985;BME280;9626;52.552;13.436;2023-02-01T03:39:58;100363.72;;;3.19;100.00
18985;BME280;9626;52.552;13.436;2023-02-01T03:42:35;100362.88;;;3.18;100.00
18985;BME280;9626;52.552;13.436;2023-02-01T03:45:09;100362.88;;;3.20;100.00
18985;BME280;9626;52.552;13.436;2023-02-01T03:47:40;100359.41;;;3.22;100.00
18985;BME280;9626;52.552;13.436;2023-02-01T03:50:11;100353.31;;;3.25;100.00
18985;BME280;9626;52.552;13.436;2023-02-01T03:52:43;100356.78;;;3.21;100.00
18985;BME280;9626;52.552;13.436;2023-02-01T03:55:11;100358.53;;;3.22;100.00
18985;BME280;9626;52.552;13.436;2023-02-01T03:57:44;100350.69;;;3.22;100.00
18985;BME280;9626;52.552;13.436;2023-02-01T04:00:21;100352.44;;;3.25;100.00
18985;BME280;9626;52.552;13.436;2023-02-01T04:03:08;100346.38;;;3.30;100.00
18985;BME280;9626;52.552;13.436;2023-02-01T04:05:35;100357.69;;;3.29;100.00
18985;BME280;9626;52.552;13.436;2023-02-01T04:08:01;100351.59;;;3.33;100.00
18985;BME280;9626;52.552;13.436;2023-02-01T04:10:27;100355.09;;;3.32;100.00
18985;BME280;9626;52.552;13.436;2023-02-01T04:12:53;100351.59;;;3.33;100.00
18985;BME280;9626;52.552;13.436;2023-02-01T04:15:19;100357.75;;;3.37;100.00
18985;BME280;9626;52.552;13.436;2023-02-01T04:17:45;100356.84;;;3.36;100.00
18985;BME280;9626;52.552;13.436;2023-02-01T04:20:11;100355.97;;;3.37;100.00
18985;BME280;9626;52.552;13.436;2023-02-01T04:22:37;100352.50;;;3.40;100.00
18985;BME280;9626;52.552;13.436;2023-02-01T04:25:03;100359.50;;;3.40;100.00
18985;BME280;9626;52.552;13.436;2023-02-01T04:27:31;100348.19;;;3.44;100.00
18985;BME280;9626;52.552;13.436;2023-02-01T04:29:57;100356.03;;;3.47;100.00
18985;BME280;9626;52.552;13.436;2023-02-01T04:32:23;100349.03;;;3.47;100.00
18985;BME280;9626;52.552;13.436;2023-02-01T04:34:49;100349.03;;;3.50;100.00
18985;BME280;9626;52.552;13.436;2023-02-01T04:37:15;100353.47;;;3.54;100.00
18985;BME280;9626;52.552;13.436;2023-02-01T04:39:41;100353.47;;;3.62;100.00
18985;BME280;9626;52.552;13.436;2023-02-01T04:42:07;100348.25;;;3.67;100.00
18985;BME280;9626;52.552;13.436;2023-02-01T04:44:34;100351.75;;;3.70;100.00
18985;BME280;9626;52.552;13.436;2023-02-01T04:47:02;100356.97;;;3.69;100.00
18985;BME280;9626;52.552;13.436;2023-02-01T04:49:28;100356.97;;;3.67;100.00
18985;BME280;9626;52.552;13.436;2023-02-01T04:51:54;100343.88;;;3.70;100.00
18985;BME280;9626;52.552;13.436;2023-02-01T04:54:20;100357.88;;;3.71;100.00
18985;BME280;9626;52.552;13.436;2023-02-01T04:56:46;100356.97;;;3.72;100.00
18985;BME280;9626;52.552;13.436;2023-02-01T04:59:12;100335.16;;;3.73;100.00
18985;BME280;9626;52.552;13.436;2023-02-01T05:01:38;100353.53;;;3.78;100.00
18985;BME280;9626;52.552;13.436;2023-02-01T05:04:04;100326.47;;;3.82;100.00
18985;BME280;9626;52.552;13.436;2023-02-01T05:06:30;100330.81;;;3.83;100.00
18985;BME280;9626;52.552;13.436;2023-02-01T05:08:56;100332.56;;;3.82;100.00
18985;BME280;9626;52.552;13.436;2023-02-01T05:11:23;100316.84;;;3.87;100.00
18985;BME280;9626;52.552;13.436;2023-02-01T05:14:07;100318.63;;;3.88;100.00
18985;BME280;9626;52.552;13.436;2023-02-01T05:16:34;100316.00;;;3.86;100.00
18985;BME280;9626;52.552;13.436;2023-02-01T05:19:00;100314.25;;;3.84;100.00
18985;BME280;9626;52.552;13.436;2023-02-01T05:21:26;100315.09;;;3.83;100.00
18985;BME280;9626;52.552;13.436;2023-02-01T05:23:52;100301.13;;;3.87;100.00
18985;BME280;9626;52.552;13.436;2023-02-01T05:26:41;100302.88;;;3.91;100.00
18985;BME280;9626;52.552;13.436;2023-02-01T05:29:08;100310.78;;;3.94;100.00
18985;BME280;9626;52.552;13.436;2023-02-01T05:31:34;100315.13;;;3.95;100.00
18985;BME280;9626;52.552;13.436;2023-02-01T05:34:00;100300.28;;;3.96;100.00
18985;BME280;9626;52.552;13.436;2023-02-01T05:36:26;100302.91;;;3.99;100.00
18985;BME280;9626;52.552;13.436;2023-02-01T05:38:52;100299.41;;;4.04;100.00
18985;BME280;9626;52.552;13.436;2023-02-01T05:41:18;100307.28;;;4.03;100.00
18985;BME280;9626;52.552;13.436;2023-02-01T05:43:44;100314.28;;;4.04;100.00
18985;BME280;9626;52.552;13.436;2023-02-01T05:46:11;100316.91;;;4.07;100.00
18985;BME280;9626;52.552;13.436;2023-02-01T05:48:39;100308.16;;;4.08;100.00
18985;BME280;9626;52.552;13.436;2023-02-01T05:51:06;100307.28;;;4.04;100.00
18985;BME280;9626;52.552;13.436;2023-02-01T05:53:32;100297.66;;;4.03;100.00
18985;BME280;9626;52.552;13.436;2023-02-01T05:55:58;100293.31;;;4.02;100.00
18985;BME280;9626;52.552;13.436;2023-02-01T05:58:24;100284.56;;;4.00;100.00
18985;BME280;9626;52.552;13.436;2023-02-01T06:00:50;100288.06;;;3.99;100.00
18985;BME280;9626;52.552;13.436;2023-02-01T06:03:16;100280.22;;;4.01;100.00
18985;BME280;9626;52.552;13.436;2023-02-01T06:05:46;100281.94;;;4.02;100.00
18985;BME280;9626;52.552;13.436;2023-02-01T06:08:13;100280.22;;;4.02;100.00
18985;BME280;9626;52.552;13.436;2023-02-01T06:10:40;100281.94;;;4.00;100.00
18985;BME280;9626;52.552;13.436;2023-02-01T06:13:06;100278.47;;;4.00;100.00
18985;BME280;9626;52.552;13.436;2023-02-01T06:15:32;100277.56;;;3.99;100.00
18985;BME280;9626;52.552;13.436;2023-02-01T06:17:58;100281.09;;;4.00;100.00
18985;BME280;9626;52.552;13.436;2023-02-01T06:20:24;100283.69;;;3.95;100.00
18985;BME280;9626;52.552;13.436;2023-02-01T06:22:50;100284.56;;;3.91;100.00
18985;BME280;9626;52.552;13.436;2023-02-01T06:25:16;100278.47;;;3.87;100.00
18985;BME280;9626;52.552;13.436;2023-02-01T06:27:42;100273.19;;;3.83;100.00
18985;BME280;9626;52.552;13.436;2023-02-01T06:30:11;100284.53;;;3.79;100.00
18985;BME280;9626;52.552;13.436;2023-02-01T06:32:39;100281.94;;;3.72;100.00
18985;BME280;9626;52.552;13.436;2023-02-01T06:35:09;100282.78;;;3.70;100.00
18985;BME280;9626;52.552;13.436;2023-02-01T06:37:42;100277.53;;;3.64;100.00
18985;BME280;9626;52.552;13.436;2023-02-01T06:40:08;100281.91;;;3.59;100.00
18985;BME280;9626;52.552;13.436;2023-02-01T06:42:35;100284.50;;;3.57;100.00
18985;BME280;9626;52.552;13.436;2023-02-01T06:45:00;100268.81;;;3.59;100.00
18985;BME280;9626;52.552;13.436;2023-02-01T06:47:27;100275.78;;;3.58;100.00
18985;BME280;9626;52.552;13.436;2023-02-01T06:49:52;100276.63;;;3.54;100.00
18985;BME280;9626;52.552;13.436;2023-02-01T06:52:18;100256.59;;;3.56;100.00
18985;BME280;9626;52.552;13.436;2023-02-01T06:54:44;100260.06;;;3.60;100.00
18985;BME280;9626;52.552;13.436;2023-02-01T06:57:10;100262.69;;;3.60;100.00
18985;BME280;9626;52.552;13.436;2023-02-01T06:59:36;100239.13;;;3.60;100.00
18985;BME280;9626;52.552;13.436;2023-02-01T07:02:02;100246.97;;;3.61;100.00
18985;BME280;9626;52.552;13.436;2023-02-01T07:04:28;100244.38;;;3.66;100.00
18985;BME280;9626;52.552;13.436;2023-02-01T07:06:56;100247.00;;;3.67;100.00
18985;BME280;9626;52.552;13.436;2023-02-01T07:09:22;100245.22;;;3.69;100.00
18985;BME280;9626;52.552;13.436;2023-02-01T07:11:48;100252.22;;;3.73;100.00
18985;BME280;9626;52.552;13.436;2023-02-01T07:14:14;100243.53;;;3.78;100.00
18985;BME280;9626;52.552;13.436;2023-02-01T07:16:40;100238.28;;;3.79;100.00
18985;BME280;9626;52.552;13.436;2023-02-01T07:19:06;100241.78;;;3.77;100.00
18985;BME280;9626;52.552;13.436;2023-02-01T07:21:32;100238.28;;;3.71;100.00
18985;BME280;9626;52.552;13.436;2023-02-01T07:23:58;100229.53;;;3.65;100.00
18985;BME280;9626;52.552;13.436;2023-02-01T07:26:25;100237.38;;;3.63;100.00
18985;BME280;9626;52.552;13.436;2023-02-01T07:28:51;100240.00;;;3.60;100.00
18985;BME280;9626;52.552;13.436;2023-02-01T07:31:18;100224.28;;;3.57;100.00
18985;BME280;9626;52.552;13.436;2023-02-01T07:33:47;100219.03;;;3.55;100.00
18985;BME280;9626;52.552;13.436;2023-02-01T07:36:16;100223.41;;;3.57;100.00
18985;BME280;9626;52.552;13.436;2023-02-01T07:38:42;100220.78;;;3.61;100.00
18985;BME280;9626;52.552;13.436;2023-02-01T07:41:09;100216.44;;;3.60;100.00
18985;BME280;9626;52.552;13.436;2023-02-01T07:43:35;100219.91;;;3.61;100.00
18985;BME280;9626;52.552;13.436;2023-02-01T07:46:03;100206.84;;;3.61;100.00
18985;BME280;9626;52.552;13.436;2023-02-01T07:48:30;100212.06;;;3.56;100.00
18985;BME280;9626;52.552;13.436;2023-02-01T07:51:10;100219.91;;;3.53;100.00
18985;BME280;9626;52.552;13.436;2023-02-01T07:53:54;100218.16;;;3.46;100.00
18985;BME280;9626;52.552;13.436;2023-02-01T07:56:39;100215.50;;;3.36;100.00
18985;BME280;9626;52.552;13.436;2023-02-01T07:59:23;100234.69;;;3.26;100.00
18985;BME280;9626;52.552;13.436;2023-02-01T08:01:49;100233.75;;;3.12;100.00
18985;BME280;9626;52.552;13.436;2023-02-01T08:04:15;100229.38;;;3.11;100.00
18985;BME280;9626;52.552;13.436;2023-02-01T08:06:41;100224.09;;;2.92;100.00
18985;BME280;9626;52.552;13.436;2023-02-01T08:09:08;100222.25;;;2.71;100.00
18985;BME280;9626;52.552;13.436;2023-02-01T08:11:35;100227.41;;;2.60;100.00
18985;BME280;9626;52.552;13.436;2023-02-01T08:14:04;100222.13;;;2.49;100.00
18985;BME280;9626;52.552;13.436;2023-02-01T08:16:31;100215.13;;;2.44;100.00
18985;BME280;9626;52.552;13.436;2023-02-01T08:18:57;100228.19;;;2.44;100.00
18985;BME280;9626;52.552;13.436;2023-02-01T08:21:26;100234.25;;;2.40;100.00
18985;BME280;9626;52.552;13.436;2023-02-01T08:23:54;100236.91;;;2.43;100.00
18985;BME280;9626;52.552;13.436;2023-02-01T08:26:24;100249.09;;;2.41;100.00
18985;BME280;9626;52.552;13.436;2023-02-01T08:28:56;100239.47;;;2.35;100.00
18985;BME280;9626;52.552;13.436;2023-02-01T08:31:24;100240.34;;;2.37;100.00
18985;BME280;9626;52.552;13.436;2023-02-01T08:33:53;100249.94;;;2.40;100.00
18985;BME280;9626;52.552;13.436;2023-02-01T08:36:20;100244.69;;;2.33;100.00
18985;BME280;9626;52.552;13.436;2023-02-01T08:38:46;100249.94;;;2.36;100.00
18985;BME280;9626;52.552;13.436;2023-02-01T08:41:21;100254.28;;;2.36;100.00
18985;BME280;9626;52.552;13.436;2023-02-01T08:43:47;100263.84;;;2.35;100.00
18985;BME280;9626;52.552;13.436;2023-02-01T08:46:14;100265.59;;;2.33;100.00
18985;BME280;9626;52.552;13.436;2023-02-01T08:48:41;100259.53;;;2.36;100.00
18985;BME280;9626;52.552;13.436;2023-02-01T08:51:09;100264.75;;;2.38;100.00
18985;BME280;9626;52.552;13.436;2023-02-01T08:53:36;100270.75;;;2.27;100.00
18985;BME280;9626;52.552;13.436;2023-02-01T08:56:03;100269.91;;;2.27;100.00
18985;BME280;9626;52.552;13.436;2023-02-01T08:58:29;100269.03;;;2.28;100.00
18985;BME280;9626;52.552;13.436;2023-02-01T09:00:55;100287.34;;;2.29;100.00
18985;BME280;9626;52.552;13.436;2023-02-01T09:03:21;100268.16;;;2.26;100.00
18985;BME280;9626;52.552;13.436;2023-02-01T09:05:47;100275.97;;;2.26;100.00
18985;BME280;9626;52.552;13.436;2023-02-01T09:08:14;100273.38;;;2.29;100.00
18985;BME280;9626;52.552;13.436;2023-02-01T09:10:41;100282.13;;;2.32;100.00
18985;BME280;9626;52.552;13.436;2023-02-01T09:13:08;100279.53;;;2.34;100.00
18985;BME280;9626;52.552;13.436;2023-02-01T09:15:35;100276.91;;;2.35;100.00
18985;BME280;9626;52.552;13.436;2023-02-01T09:18:02;100270.91;;;2.43;100.00
18985;BME280;9626;52.552;13.436;2023-02-01T09:20:28;100283.13;;;2.48;100.00
18985;BME280;9626;52.552;13.436;2023-02-01T09:22:55;100290.13;;;2.54;100.00
18985;BME280;9626;52.552;13.436;2023-02-01T09:25:21;100284.06;;;2.58;100.00
18985;BME280;9626;52.552;13.436;2023-02-01T09:27:47;100290.16;;;2.60;100.00
18985;BME280;9626;52.552;13.436;2023-02-01T09:30:13;100289.31;;;2.63;100.00
18985;BME280;9626;52.552;13.436;2023-02-01T09:32:39;100307.66;;;2.66;100.00
18985;BME280;9626;52.552;13.436;2023-02-01T09:35:06;100303.28;;;2.68;100.00
18985;BME280;9626;52.552;13.436;2023-02-01T09:37:32;100300.66;;;2.66;100.00
18985;BME280;9626;52.552;13.436;2023-02-01T09:39:58;100300.66;;;2.68;100.00
18985;BME280;9626;52.552;13.436;2023-02-01T09:45:40;100318.19;;;2.80;100.00
18985;BME280;9626;52.552;13.436;2023-02-01T09:48:14;100320.75;;;2.77;100.00
18985;BME280;9626;52.552;13.436;2023-02-01T09:50:47;100323.38;;;2.77;100.00
18985;BME280;9626;52.552;13.436;2023-02-01T09:53:17;100319.91;;;2.78;100.00
18985;BME280;9626;52.552;13.436;2023-02-01T09:55:47;100320.81;;;2.78;100.00
18985;BME280;9626;52.552;13.436;2023-02-01T09:58:18;100320.75;;;2.77;100.00
18985;BME280;9626;52.552;13.436;2023-02-01T10:00:52;100323.44;;;2.86;100.00
18985;BME280;9626;52.552;13.436;2023-02-01T10:03:19;100323.44;;;2.86;100.00
18985;BME280;9626;52.552;13.436;2023-02-01T10:14:45;100325.13;;;2.78;100.00
18985;BME280;9626;52.552;13.436;2023-02-01T10:20:43;100329.44;;;2.68;100.00
18985;BME280;9626;52.552;13.436;2023-02-01T10:27:13;100332.06;;;2.69;100.00
18985;BME280;9626;52.552;13.436;2023-02-01T10:30:01;100343.44;;;2.76;100.00
18985;BME280;9626;52.552;13.436;2023-02-01T10:33:14;100323.44;;;2.83;100.00
18985;BME280;9626;52.552;13.436;2023-02-01T10:36:04;100339.19;;;2.92;100.00
18985;BME280;9626;52.552;13.436;2023-02-01T10:38:55;100331.41;;;3.04;100.00
18985;BME280;9626;52.552;13.436;2023-02-01T10:41:41;100327.09;;;3.16;100.00
18985;BME280;9626;52.552;13.436;2023-02-01T10:44:28;100318.38;;;3.20;100.00
18985;BME280;9626;52.552;13.436;2023-02-01T10:47:14;100334.94;;;3.19;100.00
18985;BME280;9626;52.552;13.436;2023-02-01T10:53:10;100327.16;;;3.28;100.00
18985;BME280;9626;52.552;13.436;2023-02-01T10:55:56;100324.56;;;3.31;100.00
18985;BME280;9626;52.552;13.436;2023-02-01T10:58:46;100330.56;;;3.09;100.00
18985;BME280;9626;52.552;13.436;2023-02-01T11:01:41;100314.81;;;2.99;100.00
18985;BME280;9626;52.552;13.436;2023-02-01T11:04:26;100320.94;;;3.01;100.00
18985;BME280;9626;52.552;13.436;2023-02-01T11:07:25;100313.09;;;3.04;100.00
18985;BME280;9626;52.552;13.436;2023-02-01T11:10:37;100302.78;;;3.45;100.00
18985;BME280;9626;52.552;13.436;2023-02-01T11:13:29;100302.78;;;3.42;100.00
18985;BME280;9626;52.552;13.436;2023-02-01T11:16:14;100299.25;;;3.33;100.00
18985;BME280;9626;52.552;13.436;2023-02-01T11:19:01;100309.72;;;3.33;100.00
18985;BME280;9626;52.552;13.436;2023-02-01T11:21:50;100308.81;;;3.28;100.00
18985;BME280;9626;52.552;13.436;2023-02-01T11:24:36;100303.63;;;3.36;100.00
18985;BME280;9626;52.552;13.436;2023-02-01T11:27:23;100301.09;;;3.54;100.00
18985;BME280;9626;52.552;13.436;2023-02-01T11:30:18;100293.31;;;4.10;100.00
18985;BME280;9626;52.552;13.436;2023-02-01T11:33:04;100276.66;;;4.74;100.00
18985;BME280;9626;52.552;13.436;2023-02-01T11:35:50;100267.94;;;4.69;100.00
18985;BME280;9626;52.552;13.436;2023-02-01T11:38:36;100266.19;;;4.50;100.00
18985;BME280;9626;52.552;13.436;2023-02-01T11:41:24;100255.75;;;4.34;100.00
18985;BME280;9626;52.552;13.436;2023-02-01T11:47:39;100248.75;;;4.09;100.00
18985;BME280;9626;52.552;13.436;2023-02-01T11:53:20;100248.75;;;4.09;100.00
18985;BME280;9626;52.552;13.436;2023-02-01T12:00:02;100246.13;;;4.32;100.00
18985;BME280;9626;52.552;13.436;2023-02-01T12:05:59;100245.22;;;4.50;100.00
18985;BME280;9626;52.552;13.436;2023-02-01T12:09:02;100228.56;;;4.72;100.00
18985;BME280;9626;52.552;13.436;2023-02-01T12:21:15;100215.44;;;4.76;100.00
18985;BME280;9626;52.552;13.436;2023-02-01T12:30:28;100204.09;;;4.66;100.00
18985;BME280;9626;52.552;13.436;2023-02-01T12:37:01;100190.13;;;4.61;100.00
18985;BME280;9626;52.552;13.436;2023-02-01T12:43:33;100176.16;;;4.52;100.00
18985;BME280;9626;52.552;13.436;2023-02-01T12:46:06;100167.47;;;4.47;100.00
18985;BME280;9626;52.552;13.436;2023-02-01T12:48:59;100160.47;;;4.45;100.00
18985;BME280;9626;52.552;13.436;2023-02-01T12:51:46;100157.84;;;4.46;100.00
18985;BME280;9626;52.552;13.436;2023-02-01T12:54:46;100162.22;;;4.47;100.00
18985;BME280;9626;52.552;13.436;2023-02-01T12:57:39;100155.19;;;4.57;100.00
18985;BME280;9626;52.552;13.436;2023-02-01T13:00:31;100151.66;;;4.64;100.00
18985;BME280;9626;52.552;13.436;2023-02-01T13:03:39;100134.16;;;4.71;100.00
18985;BME280;9626;52.552;13.436;2023-02-01T13:06:35;100128.88;;;4.74;100.00
18985;BME280;9626;52.552;13.436;2023-02-01T13:09:26;100117.50;;;4.77;100.00
18985;BME280;9626;52.552;13.436;2023-02-01T13:12:24;100161.22;;;4.81;100.00
18985;BME280;9626;52.552;13.436;2023-02-01T13:15:21;100197.06;;;4.83;100.00
18985;BME280;9626;52.552;13.436;2023-02-01T13:18:14;100197.22;;;4.25;100.00
18985;BME280;9626;52.552;13.436;2023-02-01T13:21:12;100200.72;;;3.63;100.00
18985;BME280;9626;52.552;13.436;2023-02-01T13:23:59;100196.31;;;3.42;100.00
18985;BME280;9626;52.552;13.436;2023-02-01T13:26:45;100194.56;;;3.33;100.00
18985;BME280;9626;52.552;13.436;2023-02-01T13:29:30;100192.84;;;3.38;100.00
18985;BME280;9626;52.552;13.436;2023-02-01T13:32:37;100189.34;;;3.49;100.00
18985;BME280;9626;52.552;13.436;2023-02-01T13:35:43;100177.16;;;3.62;100.00
18985;BME280;9626;52.552;13.436;2023-02-01T13:42:02;100160.53;;;4.07;100.00
18985;BME280;9626;52.552;13.436;2023-02-01T13:44:50;100144.75;;;4.38;100.00
18985;BME280;9626;52.552;13.436;2023-02-01T13:47:41;100147.28;;;4.69;100.00
18985;BME280;9626;52.552;13.436;2023-02-01T13:50:38;100129.75;;;4.79;100.00
18985;BME280;9626;52.552;13.436;2023-02-01T13:53:31;100125.34;;;4.81;100.00
18985;BME280;9626;52.552;13.436;2023-02-01T13:56:18;100123.59;;;4.83;100.00
18985;BME280;9626;52.552;13.436;2023-02-01T13:59:36;100121.84;;;4.87;100.00
18985;BME280;9626;52.552;13.436;2023-02-01T14:08:38;100106.94;;;4.89;100.00
18985;BME280;9626;52.552;13.436;2023-02-01T14:11:35;100111.31;;;4.90;100.00
18985;BME280;9626;52.552;13.436;2023-02-01T14:23:20;100081.91;;;4.15;100.00
18985;BME280;9626;52.552;13.436;2023-02-01T14:26:07;100104.63;;;4.09;100.00
18985;BME280;9626;52.552;13.436;2023-02-01T14:28:57;100093.31;;;4.05;100.00
18985;BME280;9626;52.552;13.436;2023-02-01T14:31:53;100084.56;;;4.04;100.00
18985;BME280;9626;52.552;13.436;2023-02-01T14:37:22;100088.06;;;4.06;100.00
18985;BME280;9626;52.552;13.436;2023-02-01T14:50:20;100061.72;;;4.44;100.00
18985;BME280;9626;52.552;13.436;2023-02-01T15:00:58;100041.56;;;4.55;100.00
18985;BME280;9626;52.552;13.436;2023-02-01T15:03:48;100045.06;;;4.52;100.00
18985;BME280;9626;52.552;13.436;2023-02-01T15:06:41;100033.72;;;4.52;100.00
18985;BME280;9626;52.552;13.436;2023-02-01T15:12:17;100023.22;;;4.52;100.00
18985;BME280;9626;52.552;13.436;2023-02-01T15:15:15;100032.00;;;4.45;100.00
18985;BME280;9626;52.552;13.436;2023-02-01T15:17:58;100040.81;;;4.31;100.00
18985;BME280;9626;52.552;13.436;2023-02-01T15:20:56;100036.50;;;4.12;100.00
18985;BME280;9626;52.552;13.436;2023-02-01T15:23:22;100040.91;;;4.00;100.00
18985;BME280;9626;52.552;13.436;2023-02-01T15:25:53;100040.97;;;3.83;100.00
18985;BME280;9626;52.552;13.436;2023-02-01T15:28:19;100046.22;;;3.66;100.00
18985;BME280;9626;52.552;13.436;2023-02-01T15:31:00;100049.72;;;3.53;100.00
18985;BME280;9626;52.552;13.436;2023-02-01T15:33:28;100061.97;;;3.42;100.00
18985;BME280;9626;52.552;13.436;2023-02-01T15:36:18;100072.44;;;3.32;100.00
18985;BME280;9626;52.552;13.436;2023-02-01T15:38:44;100066.34;;;3.19;100.00
18985;BME280;9626;52.552;13.436;2023-02-01T15:46:36;100072.41;;;2.95;100.00
18985;BME280;9626;52.552;13.436;2023-02-01T15:49:04;100067.16;;;2.83;100.00
18985;BME280;9626;52.552;13.436;2023-02-01T15:51:31;100076.72;;;2.72;100.00